sensor_id;sensor_type;location;lat;lon;timestamp;temperature;humidity
43999;DHT22;51319;52.162;5.302;2023-04-01T00:00:08;10.10;99.90
43999;DHT22;51319;52.162;5.302;2023-04-01T00:02:36;10.10;99.90
43999;DHT22;51319;52.162;5.302;2023-04-01T00:05:05;10.10;99.90
43999;DHT22;51319;52.162;5.302;2023-04-01T00:07:32;10.10;99.90
43999;DHT22;51319;52.162;5.302;2023-04-01T00:09:59;10.10;99.90
43999;DHT22;51319;52.162;5.302;2023-04-01T00:12:26;10.10;99.90
43999;DHT22;51319;52.162;5.302;2023-04-01T00:14:53;10.10;99.90
43999;DHT22;51319;52.162;5.302;2023-04-01T00:17:20;10.10;99.90
43999;DHT22;51319;52.162;5.302;2023-04-01T00:19:48;10.00;99.90
43999;DHT22;51319;52.162;5.302;2023-04-01T00:22:16;10.00;99.90
43999;DHT22;51319;52.162;5.302;2023-04-01T00:24:43;10.00;99.90
43999;DHT22;51319;52.162;5.302;2023-04-01T00:27:10;10.00;99.90
43999;DHT22;51319;52.162;5.302;2023-04-01T00:29:36;10.00;99.90
43999;DHT22;51319;52.162;5.302;2023-04-01T00:32:04;10.00;99.90
43999;DHT22;51319;52.162;5.302;2023-04-01T00:34:31;10.00;99.90
43999;DHT22;51319;52.162;5.302;2023-04-01T00:36:57;10.00;99.90
43999;DHT22;51319;52.162;5.302;2023-04-01T00:39:24;10.00;99.90
43999;DHT22;51319;52.162;5.302;2023-04-01T00:41:51;10.00;99.90
43999;DHT22;51319;52.162;5.302;2023-04-01T00:44:24;10.00;99.90
43999;DHT22;51319;52.162;5.302;2023-04-01T00:46:51;9.90;99.90
43999;DHT22;51319;52.162;5.302;2023-04-01T00:49:29;9.90;99.90
43999;DHT22;51319;52.162;5.302;2023-04-01T00:51:59;9.90;99.90
43999;DHT22;51319;52.162;5.302;2023-04-01T00:54:29;9.90;99.90
43999;DHT22;51319;52.162;5.302;2023-04-01T00:57:02;9.90;99.90
43999;DHT22;51319;52.162;5.302;2023-04-01T00:59:34;9.90;99.90
43999;DHT22;51319;52.162;5.302;2023-04-01T01:02:04;9.80;99.90
43999;DHT22;51319;52.162;5.302;2023-04-01T01:04:33;9.90;99.90
43999;DHT22;51319;52.162;5.302;2023-04-01T01:10:05;9.80;99.90
43999;DHT22;51319;52.162;5.302;2023-04-01T01:18:48;9.80;99.90
43999;DHT22;51319;52.162;5.302;2023-04-01T01:31:55;9.60;99.90
43999;DHT22;51319;52.162;5.302;2023-04-01T01:37:08;9.60;99.90
43999;DHT22;51319;52.162;5.302;2023-04-01T01:39:37;9.60;99.90
43999;DHT22;51319;52.162;5.302;2023-04-01T01:42:08;9.60;99.90
43999;DHT22;51319;52.162;5.302;2023-04-01T01:44:38;9.60;99.90
43999;DHT22;51319;52.162;5.302;2023-04-01T01:47:05;9.50;99.90
43999;DHT22;51319;52.162;5.302;2023-04-01T01:49:33;9.50;99.90
43999;DHT22;51319;52.162;5.302;2023-04-01T01:52:02;9.50;99.90
43999;DHT22;51319;52.162;5.302;2023-04-01T01:54:30;9.50;99.90
43999;DHT22;51319;52.162;5.302;2023-04-01T01:57:07;9.50;99.90
43999;DHT22;51319;52.162;5.302;2023-04-01T01:59:38;9.50;99.90
43999;DHT22;51319;52.162;5.302;2023-04-01T02:02:08;9.50;99.90
43999;DHT22;51319;52.162;5.302;2023-04-01T02:04:39;9.50;99.90
43999;DHT22;51319;52.162;5.302;2023-04-01T02:07:12;9.50;99.90
43999;DHT22;51319;52.162;5.302;2023-04-01T02:09:40;9.50;99.90
43999;DHT22;51319;52.162;5.302;2023-04-01T02:12:10;9.50;99.90
43999;DHT22;51319;52.162;5.302;2023-04-01T02:14:43;9.50;99.90
43999;DHT22;51319;52.162;5.302;2023-04-01T02:17:26;9.50;99.90
43999;DHT22;51319;52.162;5.302;2023-04-01T02:20:11;9.50;99.90
43999;DHT22;51319;52.162;5.302;2023-04-01T02:22:53;9.50;99.90
43999;DHT22;51319;52.162;5.302;2023-04-01T02:25:30;9.40;99.90
43999;DHT22;51319;52.162;5.302;2023-04-01T02:28:02;9.40;99.90
43999;DHT22;51319;52.162;5.302;2023-04-01T02:30:32;9.40;99.90
43999;DHT22;51319;52.162;5.302;2023-04-01T02:33:01;9.40;99.90
43999;DHT22;51319;52.162;5.302;2023-04-01T02:35:28;9.40;99.90
43999;DHT22;51319;52.162;5.302;2023-04-01T02:38:00;9.40;99.90
43999;DHT22;51319;52.162;5.302;2023-04-01T02:40:27;9.30;99.90
43999;DHT22;51319;52.162;5.302;2023-04-01T02:42:54;9.40;99.90
43999;DHT22;51319;52.162;5.302;2023-04-01T02:45:21;9.30;99.90
43999;DHT22;51319;52.162;5.302;2023-04-01T02:47:48;9.40;99.90
43999;DHT22;51319;52.162;5.302;2023-04-01T02:50:16;9.40;99.90
43999;DHT22;51319;52.162;5.302;2023-04-01T02:52:43;9.40;99.90
43999;DHT22;51319;52.162;5.302;2023-04-01T02:55:10;9.30;99.90
43999;DHT22;51319;52.162;5.302;2023-04-01T02:57:37;9.30;99.90
43999;DHT22;51319;52.162;5.302;2023-04-01T03:00:04;9.30;99.90
43999;DHT22;51319;52.162;5.302;2023-04-01T03:02:33;9.30;99.90
43999;DHT22;51319;52.162;5.302;2023-04-01T03:05:00;9.30;99.90
43999;DHT22;51319;52.162;5.302;2023-04-01T03:07:27;9.30;99.90
43999;DHT22;51319;52.162;5.302;2023-04-01T03:09:54;9.40;99.90
43999;DHT22;51319;52.162;5.302;2023-04-01T03:12:21;9.40;99.90
43999;DHT22;51319;52.162;5.302;2023-04-01T03:14:47;9.30;99.90
43999;DHT22;51319;52.162;5.302;2023-04-01T03:17:14;9.30;99.90
43999;DHT22;51319;52.162;5.302;2023-04-01T03:19:42;9.40;99.90
43999;DHT22;51319;52.162;5.302;2023-04-01T03:22:12;9.40;99.90
43999;DHT22;51319;52.162;5.302;2023-04-01T03:24:39;9.40;99.90
43999;DHT22;51319;52.162;5.302;2023-04-01T03:27:06;9.40;99.90
43999;DHT22;51319;52.162;5.302;2023-04-01T03:29:33;9.40;99.90
43999;DHT22;51319;52.162;5.302;2023-04-01T03:32:00;9.40;99.90
43999;DHT22;51319;52.162;5.302;2023-04-01T03:34:27;9.40;99.90
43999;DHT22;51319;52.162;5.302;2023-04-01T03:36:54;9.40;99.90
43999;DHT22;51319;52.162;5.302;2023-04-01T03:39:21;9.40;99.90
43999;DHT22;51319;52.162;5.302;2023-04-01T03:41:48;9.40;99.90
43999;DHT22;51319;52.162;5.302;2023-04-01T03:44:15;9.50;99.90
43999;DHT22;51319;52.162;5.302;2023-04-01T03:46:42;9.40;99.90
43999;DHT22;51319;52.162;5.302;2023-04-01T03:49:10;9.50;99.90
43999;DHT22;51319;52.162;5.302;2023-04-01T03:51:42;9.50;99.90
43999;DHT22;51319;52.162;5.302;2023-04-01T03:54:10;9.50;99.90
43999;DHT22;51319;52.162;5.302;2023-04-01T03:56:37;9.50;99.90
43999;DHT22;51319;52.162;5.302;2023-04-01T03:59:06;9.50;99.90
43999;DHT22;51319;52.162;5.302;2023-04-01T04:01:33;9.50;99.90
43999;DHT22;51319;52.162;5.302;2023-04-01T04:04:01;9.50;99.90
43999;DHT22;51319;52.162;5.302;2023-04-01T04:06:28;9.60;99.90
43999;DHT22;51319;52.162;5.302;2023-04-01T04:08:55;9.60;99.90
43999;DHT22;51319;52.162;5.302;2023-04-01T04:11:22;9.60;99.90
43999;DHT22;51319;52.162;5.302;2023-04-01T04:13:49;9.60;99.90
43999;DHT22;51319;52.162;5.302;2023-04-01T04:16:17;9.60;99.90
43999;DHT22;51319;52.162;5.302;2023-04-01T04:18:44;9.70;99.90
43999;DHT22;51319;52.162;5.302;2023-04-01T04:21:14;9.60;99.90
43999;DHT22;51319;52.162;5.302;2023-04-01T04:23:42;9.60;99.90
43999;DHT22;51319;52.162;5.302;2023-04-01T04:26:13;9.70;99.90
43999;DHT22;51319;52.162;5.302;2023-04-01T04:28:41;9.70;99.90
43999;DHT22;51319;52.162;5.302;2023-04-01T04:31:08;9.70;99.90
43999;DHT22;51319;52.162;5.302;2023-04-01T04:33:36;9.70;99.90
43999;DHT22;51319;52.162;5.302;2023-04-01T04:36:04;9.70;99.90
43999;DHT22;51319;52.162;5.302;2023-04-01T04:38:31;9.70;99.90
43999;DHT22;51319;52.162;5.302;2023-04-01T04:40:59;9.70;99.90
43999;DHT22;51319;52.162;5.302;2023-04-01T04:43:26;9.70;99.90
43999;DHT22;51319;52.162;5.302;2023-04-01T04:45:53;9.70;99.90
43999;DHT22;51319;52.162;5.302;2023-04-01T04:48:20;9.80;99.90
43999;DHT22;51319;52.162;5.302;2023-04-01T04:50:48;9.80;99.90
43999;DHT22;51319;52.162;5.302;2023-04-01T04:53:17;9.80;99.90
43999;DHT22;51319;52.162;5.302;2023-04-01T04:55:46;9.80;99.90
43999;DHT22;51319;52.162;5.302;2023-04-01T04:58:16;9.80;99.90
43999;DHT22;51319;52.162;5.302;2023-04-01T05:00:45;9.80;99.90
43999;DHT22;51319;52.162;5.302;2023-04-01T05:03:13;9.80;99.90
43999;DHT22;51319;52.162;5.302;2023-04-01T05:05:47;9.80;99.90
43999;DHT22;51319;52.162;5.302;2023-04-01T05:08:16;9.80;99.90
43999;DHT22;51319;52.162;5.302;2023-04-01T05:10:43;9.80;99.90
43999;DHT22;51319;52.162;5.302;2023-04-01T05:13:11;9.80;99.90
43999;DHT22;51319;52.162;5.302;2023-04-01T05:15:40;9.80;99.90
43999;DHT22;51319;52.162;5.302;2023-04-01T05:18:07;9.80;99.90
43999;DHT22;51319;52.162;5.302;2023-04-01T05:20:35;9.80;99.90
43999;DHT22;51319;52.162;5.302;2023-04-01T05:23:04;9.80;99.90
43999;DHT22;51319;52.162;5.302;2023-04-01T05:25:31;9.80;99.90
43999;DHT22;51319;52.162;5.302;2023-04-01T05:27:58;9.80;99.90
43999;DHT22;51319;52.162;5.302;2023-04-01T05:30:25;9.80;99.90
43999;DHT22;51319;52.162;5.302;2023-04-01T05:32:52;9.90;99.90
43999;DHT22;51319;52.162;5.302;2023-04-01T05:35:20;9.80;99.90
43999;DHT22;51319;52.162;5.302;2023-04-01T05:37:47;9.90;99.90
43999;DHT22;51319;52.162;5.302;2023-04-01T05:40:14;9.90;99.90
43999;DHT22;51319;52.162;5.302;2023-04-01T05:42:41;9.90;99.90
43999;DHT22;51319;52.162;5.302;2023-04-01T05:45:08;9.90;99.90
43999;DHT22;51319;52.162;5.302;2023-04-01T05:47:35;9.90;99.90
43999;DHT22;51319;52.162;5.302;2023-04-01T05:50:03;9.90;99.90
43999;DHT22;51319;52.162;5.302;2023-04-01T05:52:30;9.90;99.90
43999;DHT22;51319;52.162;5.302;2023-04-01T05:55:00;9.90;99.90
43999;DHT22;51319;52.162;5.302;2023-04-01T05:57:27;9.90;99.90
43999;DHT22;51319;52.162;5.302;2023-04-01T06:00:06;9.90;99.90
43999;DHT22;51319;52.162;5.302;2023-04-01T06:02:33;9.80;99.90
43999;DHT22;51319;52.162;5.302;2023-04-01T06:05:23;9.90;99.90
43999;DHT22;51319;52.162;5.302;2023-04-01T06:07:57;9.90;99.90
43999;DHT22;51319;52.162;5.302;2023-04-01T06:13:23;9.90;99.90
43999;DHT22;51319;52.162;5.302;2023-04-01T06:16:06;9.90;99.90
43999;DHT22;51319;52.162;5.302;2023-04-01T06:18:51;9.90;99.90
43999;DHT22;51319;52.162;5.302;2023-04-01T06:21:24;9.80;99.90
43999;DHT22;51319;52.162;5.302;2023-04-01T06:32:49;9.90;99.90
43999;DHT22;51319;52.162;5.302;2023-04-01T06:35:30;9.90;99.90
43999;DHT22;51319;52.162;5.302;2023-04-01T06:38:20;9.90;99.90
43999;DHT22;51319;52.162;5.302;2023-04-01T06:56:25;10.10;99.90
43999;DHT22;51319;52.162;5.302;2023-04-01T07:01:33;10.20;99.90
43999;DHT22;51319;52.162;5.302;2023-04-01T07:04:19;10.20;99.90
43999;DHT22;51319;52.162;5.302;2023-04-01T07:06:51;10.30;99.90
43999;DHT22;51319;52.162;5.302;2023-04-01T07:09:24;10.30;99.90
43999;DHT22;51319;52.162;5.302;2023-04-01T07:11:56;10.30;99.90
43999;DHT22;51319;52.162;5.302;2023-04-01T07:14:35;10.40;99.90
43999;DHT22;51319;52.162;5.302;2023-04-01T07:17:15;10.40;99.90
43999;DHT22;51319;52.162;5.302;2023-04-01T07:19:52;10.40;99.90
43999;DHT22;51319;52.162;5.302;2023-04-01T07:22:28;10.40;99.90
43999;DHT22;51319;52.162;5.302;2023-04-01T07:24:57;10.40;99.90
43999;DHT22;51319;52.162;5.302;2023-04-01T07:27:28;10.50;99.90
43999;DHT22;51319;52.162;5.302;2023-04-01T07:29:58;10.50;99.90
43999;DHT22;51319;52.162;5.302;2023-04-01T07:32:40;10.60;99.90
43999;DHT22;51319;52.162;5.302;2023-04-01T07:41:12;10.70;99.90
43999;DHT22;51319;52.162;5.302;2023-04-01T07:49:35;10.60;99.90
43999;DHT22;51319;52.162;5.302;2023-04-01T07:52:27;10.60;99.90
43999;DHT22;51319;52.162;5.302;2023-04-01T07:55:07;10.60;99.90
43999;DHT22;51319;52.162;5.302;2023-04-01T08:06:37;10.70;99.90
43999;DHT22;51319;52.162;5.302;2023-04-01T08:19:57;10.80;99.90
43999;DHT22;51319;52.162;5.302;2023-04-01T08:22:31;10.80;99.90
43999;DHT22;51319;52.162;5.302;2023-04-01T08:25:04;10.90;99.90
43999;DHT22;51319;52.162;5.302;2023-04-01T08:27:37;10.90;99.90
43999;DHT22;51319;52.162;5.302;2023-04-01T08:30:23;10.90;99.90
43999;DHT22;51319;52.162;5.302;2023-04-01T08:32:58;10.90;99.90
43999;DHT22;51319;52.162;5.302;2023-04-01T08:35:39;10.90;99.90
43999;DHT22;51319;52.162;5.302;2023-04-01T08:41:21;11.00;99.90
43999;DHT22;51319;52.162;5.302;2023-04-01T08:56:20;11.10;99.90
43999;DHT22;51319;52.162;5.302;2023-04-01T09:05:47;11.30;99.90
43999;DHT22;51319;52.162;5.302;2023-04-01T09:11:42;11.30;99.90
43999;DHT22;51319;52.162;5.302;2023-04-01T09:14:47;11.30;99.90
43999;DHT22;51319;52.162;5.302;2023-04-01T09:18:12;11.40;99.90
43999;DHT22;51319;52.162;5.302;2023-04-01T09:26:27;11.50;99.90
43999;DHT22;51319;52.162;5.302;2023-04-01T09:37:34;11.40;99.90
43999;DHT22;51319;52.162;5.302;2023-04-01T09:42:56;11.40;99.90
43999;DHT22;51319;52.162;5.302;2023-04-01T09:45:41;11.50;99.90
43999;DHT22;51319;52.162;5.302;2023-04-01T09:53:43;11.80;99.90
43999;DHT22;51319;52.162;5.302;2023-04-01T11:30:02;14.60;99.90
43999;DHT22;51319;52.162;5.302;2023-04-01T11:33:05;14.90;99.90
43999;DHT22;51319;52.162;5.302;2023-04-01T11:38:47;15.20;99.90
43999;DHT22;51319;52.162;5.302;2023-04-01T11:44:20;15.50;99.90
43999;DHT22;51319;52.162;5.302;2023-04-01T11:49:58;15.30;99.90
43999;DHT22;51319;52.162;5.302;2023-04-01T11:53:10;14.80;99.90
43999;DHT22;51319;52.162;5.302;2023-04-01T12:15:46;13.70;99.90
43999;DHT22;51319;52.162;5.302;2023-04-01T12:23:48;13.60;99.90
43999;DHT22;51319;52.162;5.302;2023-04-01T12:27:02;13.50;99.90
43999;DHT22;51319;52.162;5.302;2023-04-01T12:35:38;13.50;99.90
43999;DHT22;51319;52.162;5.302;2023-04-01T12:46:38;13.50;99.90
43999;DHT22;51319;52.162;5.302;2023-04-01T12:51:58;13.50;99.90
43999;DHT22;51319;52.162;5.302;2023-04-01T12:54:37;13.50;99.90
43999;DHT22;51319;52.162;5.302;2023-04-01T13:17:22;13.30;99.90
43999;DHT22;51319;52.162;5.302;2023-04-01T13:20:04;13.20;99.90
43999;DHT22;51319;52.162;5.302;2023-04-01T13:26:09;13.00;99.90
43999;DHT22;51319;52.162;5.302;2023-04-01T13:34:13;12.80;99.90
43999;DHT22;51319;52.162;5.302;2023-04-01T13:37:05;12.80;99.90
43999;DHT22;51319;52.162;5.302;2023-04-01T13:39:43;12.70;99.90
43999;DHT22;51319;52.162;5.302;2023-04-01T13:42:39;12.60;99.90
43999;DHT22;51319;52.162;5.302;2023-04-01T13:45:19;12.60;99.90
43999;DHT22;51319;52.162;5.302;2023-04-01T13:47:51;12.40;99.90
43999;DHT22;51319;52.162;5.302;2023-04-01T14:09:54;12.40;99.90
43999;DHT22;51319;52.162;5.302;2023-04-01T14:12:48;12.40;99.90
43999;DHT22;51319;52.162;5.302;2023-04-01T14:16:02;12.30;99.90
43999;DHT22;51319;52.162;5.302;2023-04-01T14:23:49;12.20;99.90
43999;DHT22;51319;52.162;5.302;2023-04-01T14:34:59;12.10;99.90
43999;DHT22;51319;52.162;5.302;2023-04-01T14:48:37;12.00;99.90
43999;DHT22;51319;52.162;5.302;2023-04-01T14:51:18;12.10;99.90
43999;DHT22;51319;52.162;5.302;2023-04-01T15:02:08;12.00;99.90
43999;DHT22;51319;52.162;5.302;2023-04-01T15:04:58;12.00;99.90
43999;DHT22;51319;52.162;5.302;2023-04-01T15:07:34;12.00;99.90
43999;DHT22;51319;52.162;5.302;2023-04-01T15:18:49;11.90;99.90
43999;DHT22;51319;52.162;5.302;2023-04-01T15:24:47;11.70;99.90
43999;DHT22;51319;52.162;5.302;2023-04-01T15:36:20;11.70;99.90
43999;DHT22;51319;52.162;5.302;2023-04-01T15:47:54;11.60;99.90
43999;DHT22;51319;52.162;5.302;2023-04-01T16:12:52;11.50;99.90
43999;DHT22;51319;52.162;5.302;2023-04-01T16:24:34;11.40;99.90
43999;DHT22;51319;52.162;5.302;2023-04-01T16:29:48;11.30;99.90
43999;DHT22;51319;52.162;5.302;2023-04-01T16:32:27;11.30;99.90
43999;DHT22;51319;52.162;5.302;2023-04-01T16:40:44;11.20;99.90
43999;DHT22;51319;52.162;5.302;2023-04-01T16:43:28;11.20;99.90
43999;DHT22;51319;52.162;5.302;2023-04-01T16:52:00;11.10;99.90
43999;DHT22;51319;52.162;5.302;2023-04-01T16:54:56;11.10;99.90
43999;DHT22;51319;52.162;5.302;2023-04-01T16:57:42;11.00;99.90
43999;DHT22;51319;52.162;5.302;2023-04-01T17:00:39;11.00;99.90
43999;DHT22;51319;52.162;5.302;2023-04-01T17:12:32;10.80;99.90
43999;DHT22;51319;52.162;5.302;2023-04-01T17:15:21;10.80;99.90
43999;DHT22;51319;52.162;5.302;2023-04-01T17:20:46;10.70;99.90
43999;DHT22;51319;52.162;5.302;2023-04-01T17:23:28;10.60;99.90
43999;DHT22;51319;52.162;5.302;2023-04-01T17:28:46;10.50;99.90
43999;DHT22;51319;52.162;5.302;2023-04-01T17:31:20;10.50;99.90
43999;DHT22;51319;52.162;5.302;2023-04-01T17:37:16;10.50;99.90
43999;DHT22;51319;52.162;5.302;2023-04-01T17:46:02;10.40;99.90
43999;DHT22;51319;52.162;5.302;2023-04-01T17:49:00;10.40;99.90
43999;DHT22;51319;52.162;5.302;2023-04-01T17:54:34;10.30;99.90
43999;DHT22;51319;52.162;5.302;2023-04-01T18:15:11;10.10;99.90
43999;DHT22;51319;52.162;5.302;2023-04-01T18:21:22;10.10;99.90
43999;DHT22;51319;52.162;5.302;2023-04-01T18:23:59;10.00;99.90
43999;DHT22;51319;52.162;5.302;2023-04-01T18:26:34;10.00;99.90
43999;DHT22;51319;52.162;5.302;2023-04-01T18:31:49;9.90;99.90
43999;DHT22;51319;52.162;5.302;2023-04-01T18:34:47;9.90;99.90
43999;DHT22;51319;52.162;5.302;2023-04-01T18:37:31;9.90;99.90
43999;DHT22;51319;52.162;5.302;2023-04-01T18:52:34;9.90;99.90
43999;DHT22;51319;52.162;5.302;2023-04-01T18:58:17;9.80;99.90
43999;DHT22;51319;52.162;5.302;2023-04-01T19:01:20;9.80;99.90
43999;DHT22;51319;52.162;5.302;2023-04-01T19:04:41;9.80;99.90
43999;DHT22;51319;52.162;5.302;2023-04-01T19:14:06;9.80;99.90
43999;DHT22;51319;52.162;5.302;2023-04-01T19:17:06;9.70;99.90
43999;DHT22;51319;52.162;5.302;2023-04-01T19:19:46;9.70;99.90
43999;DHT22;51319;52.162;5.302;2023-04-01T19:25:30;9.70;99.90
43999;DHT22;51319;52.162;5.302;2023-04-01T19:28:19;9.60;99.90
43999;DHT22;51319;52.162;5.302;2023-04-01T19:35:03;9.50;99.90
43999;DHT22;51319;52.162;5.302;2023-04-01T19:42:58;9.40;99.90
43999;DHT22;51319;52.162;5.302;2023-04-01T19:45:47;9.40;99.90
43999;DHT22;51319;52.162;5.302;2023-04-01T19:51:09;9.40;99.90
43999;DHT22;51319;52.162;5.302;2023-04-01T19:53:41;9.30;99.90
43999;DHT22;51319;52.162;5.302;2023-04-01T19:56:19;9.30;99.90
43999;DHT22;51319;52.162;5.302;2023-04-01T20:01:44;9.20;99.90
43999;DHT22;51319;52.162;5.302;2023-04-01T20:04:29;9.20;99.90
43999;DHT22;51319;52.162;5.302;2023-04-01T20:10:08;9.20;99.90
43999;DHT22;51319;52.162;5.302;2023-04-01T20:12:55;9.10;99.90
43999;DHT22;51319;52.162;5.302;2023-04-01T20:18:24;9.10;99.90
43999;DHT22;51319;52.162;5.302;2023-04-01T20:21:01;9.10;99.90
43999;DHT22;51319;52.162;5.302;2023-04-01T20:26:40;9.00;99.90
43999;DHT22;51319;52.162;5.302;2023-04-01T20:31:41;8.90;99.90
43999;DHT22;51319;52.162;5.302;2023-04-01T20:34:30;8.90;99.90
43999;DHT22;51319;52.162;5.302;2023-04-01T20:39:55;8.90;99.90
43999;DHT22;51319;52.162;5.302;2023-04-01T20:43:07;8.90;99.90
43999;DHT22;51319;52.162;5.302;2023-04-01T20:45:35;8.80;99.90
43999;DHT22;51319;52.162;5.302;2023-04-01T20:51:31;8.80;99.90
43999;DHT22;51319;52.162;5.302;2023-04-01T20:57:01;8.70;99.90
43999;DHT22;51319;52.162;5.302;2023-04-01T21:00:03;8.60;99.90
43999;DHT22;51319;52.162;5.302;2023-04-01T21:09:01;8.60;99.90
43999;DHT22;51319;52.162;5.302;2023-04-01T21:14:07;8.50;99.90
43999;DHT22;51319;52.162;5.302;2023-04-01T21:16:59;8.50;99.90
43999;DHT22;51319;52.162;5.302;2023-04-01T21:25:17;8.50;99.90
43999;DHT22;51319;52.162;5.302;2023-04-01T21:27:57;8.40;99.90
43999;DHT22;51319;52.162;5.302;2023-04-01T21:40:54;8.30;99.90
43999;DHT22;51319;52.162;5.302;2023-04-01T21:46:33;8.30;99.90
43999;DHT22;51319;52.162;5.302;2023-04-01T22:00:48;8.20;99.90
43999;DHT22;51319;52.162;5.302;2023-04-01T22:03:49;8.20;99.90
43999;DHT22;51319;52.162;5.302;2023-04-01T22:14:34;8.10;99.90
43999;DHT22;51319;52.162;5.302;2023-04-01T22:20:33;8.10;99.90
43999;DHT22;51319;52.162;5.302;2023-04-01T22:23:24;8.10;99.90
43999;DHT22;51319;52.162;5.302;2023-04-01T22:29:17;8.10;99.90
43999;DHT22;51319;52.162;5.302;2023-04-01T22:32:08;8.10;99.90
43999;DHT22;51319;52.162;5.302;2023-04-01T22:34:39;8.10;99.90
43999;DHT22;51319;52.162;5.302;2023-04-01T22:46:10;8.00;99.90
43999;DHT22;51319;52.162;5.302;2023-04-01T22:48:50;7.90;99.90
43999;DHT22;51319;52.162;5.302;2023-04-01T22:51:29;7.90;99.90
43999;DHT22;51319;52.162;5.302;2023-04-01T22:56:40;7.90;99.90
43999;DHT22;51319;52.162;5.302;2023-04-01T22:59:19;7.90;99.90
43999;DHT22;51319;52.162;5.302;2023-04-01T23:02:01;7.90;99.90
43999;DHT22;51319;52.162;5.302;2023-04-01T23:04:35;7.90;99.90
43999;DHT22;51319;52.162;5.302;2023-04-01T23:07:24;7.80;99.90
43999;DHT22;51319;52.162;5.302;2023-04-01T23:09:57;7.80;99.90
43999;DHT22;51319;52.162;5.302;2023-04-01T23:12:25;7.80;99.90
43999;DHT22;51319;52.162;5.302;2023-04-01T23:17:42;7.80;99.90
43999;DHT22;51319;52.162;5.302;2023-04-01T23:20:34;7.80;99.90
43999;DHT22;51319;52.162;5.302;2023-04-01T23:23:19;7.70;99.90
43999;DHT22;51319;52.162;5.302;2023-04-01T23:26:12;7.80;99.90
43999;DHT22;51319;52.162;5.302;2023-04-01T23:28:49;7.70;99.90
43999;DHT22;51319;52.162;5.302;2023-04-01T23:31:37;7.70;99.90
43999;DHT22;51319;52.162;5.302;2023-04-01T23:36:44;7.70;99.90
43999;DHT22;51319;52.162;5.302;2023-04-01T23:42:03;7.70;99.90
43999;DHT22;51319;52.162;5.302;2023-04-01T23:44:32;7.70;99.90
43999;DHT22;51319;52.162;5.302;2023-04-01T23:47:01;7.60;99.90
43999;DHT22;51319;52.162;5.302;2023-04-01T23:49:34;7.60;99.90
43999;DHT22;51319;52.162;5.302;2023-04-01T23:55:16;7.60;99.90
43999;DHT22;51319;52.162;5.302;2023-04-01T23:58:02;7.60;99.90
